Aérodrome :
LOGIN :

S'inscrire | Disclaimer

   EN    FR    IT 

 










Légende :    VFR   VFR Marginal   IFR   IFR Intensif   IFR Très Intensif
Visi : 
Plafond : 
>= 8 km
>= 3000ft
5 à 8 km
1000 à 3000 ft
1500m à 5 km
500 à 1000 ft
800 à 1500m
200 à 500 ft
< 800m
< 200 ft
Symboles :   Orages  Brouillard  Fortes neiges  Fortes précipitations  Vent > 20 kt
SIGMETs :   Divers  Orages  Givrage  Turbulence  Onde Orograph.  Cendres Volcan.







- Altitude de l'aérodrome : 1106 ft
- Voir les cartes d'approche


LFSO - Nancy / Ochey

DERNIER METAR :
  • 260330Z AUTO 00000KT 7000 FEW034 OVC094 02/02 Q1009

METARs EXPIRÉS :
  • 260300Z AUTO VRB02KT 7000 FEW028 SCT072 OVC090 02/02 Q1009
  • 260230Z AUTO VRB02KT 9999 FEW036 OVC086 03/02 Q1009
  • 260200Z AUTO 04002KT 9000 -RA OVC038 03/02 Q1009
  • 260130Z AUTO VRB02KT 8000 -RA OVC037 03/02 Q1010
  • 260100Z AUTO 31004KT 9999 -RA OVC036 03/02 Q1010

TAF TAF LFSO
Valide du 25 à 21h jusqu'au 26 à 21h UTC


252000Z 2521/2621 15005KT CAVOK
BECMG 2521/2523 BKN010
TEMPO 2523/2606 3000 -RADZ BKN005 OVC008
BECMG 2610/2612 02010KT BKN020
Pas de NOTAMs connus pour ce terrain.



MET'MAP, la Météo Aéronautique d'un coup d'oeil ! - Copyright ORBIFLY Décembre 2007 - Disclaimer

ORBIFLY MET'MAP TEAM :

Programmation & Développement : Alexandra Zaïnal
Conception & Développement : Baudouin d'Aumeries
Co-Programmation & Développement : Marc-Olivier Méhu
Soutien technique & logistique : Manuel Goepfert

Contact : metmap@orbifly.com




SOURCES & CREDITS :

   NOAA